createdAt,value
2018-10-17T00:00:11.990Z,7.60
2018-10-17T00:02:40.712Z,7.60
2018-10-17T00:05:10.491Z,7.60
2018-10-17T00:07:39.560Z,7.50
2018-10-17T00:10:09.467Z,7.50
2018-10-17T00:12:38.329Z,7.50
2018-10-17T00:15:07.698Z,7.40
2018-10-17T00:17:36.168Z,7.40
2018-10-17T00:20:04.975Z,7.30
2018-10-17T00:22:33.431Z,7.30
2018-10-17T00:25:02.212Z,7.20
2018-10-17T00:27:30.765Z,7.30
2018-10-17T00:29:59.304Z,7.30
2018-10-17T00:32:27.809Z,7.30
2018-10-17T00:34:58.110Z,7.30
2018-10-17T00:37:26.522Z,7.30
2018-10-17T00:39:55.072Z,7.10
2018-10-17T00:42:23.539Z,7.20
2018-10-17T00:44:52.062Z,7.00
2018-10-17T00:47:20.488Z,6.80
2018-10-17T00:49:48.930Z,6.70
2018-10-17T00:52:17.427Z,6.90
2018-10-17T00:54:46.606Z,6.90
2018-10-17T00:57:15.054Z,6.90
2018-10-17T00:59:43.481Z,6.90
2018-10-17T01:02:12.151Z,6.80
2018-10-17T01:04:40.580Z,6.80
2018-10-17T01:07:09.117Z,6.90
2018-10-17T01:09:37.512Z,6.90
2018-10-17T01:12:06.065Z,6.80
2018-10-17T01:14:34.505Z,6.80
2018-10-17T01:17:03.114Z,6.70
2018-10-17T01:19:31.641Z,6.60
2018-10-17T01:22:00.220Z,6.60
2018-10-17T01:24:28.661Z,6.70
2018-10-17T01:26:57.135Z,6.60
2018-10-17T01:29:25.771Z,6.70
2018-10-17T01:31:54.162Z,6.80
2018-10-17T01:34:22.638Z,6.90
2018-10-17T01:36:51.127Z,6.80
2018-10-17T01:39:19.666Z,6.70
2018-10-17T01:41:48.152Z,6.60
2018-10-17T01:44:16.688Z,6.60
2018-10-17T01:46:45.158Z,6.70
2018-10-17T01:49:13.721Z,6.70
2018-10-17T01:51:42.062Z,6.70
2018-10-17T01:54:10.497Z,6.60
2018-10-17T01:56:39.028Z,6.60
2018-10-17T01:59:07.535Z,6.60
2018-10-17T02:01:35.954Z,6.50
2018-10-17T02:04:04.509Z,6.50
2018-10-17T02:06:32.956Z,6.50
2018-10-17T02:09:01.512Z,6.50
2018-10-17T02:11:29.928Z,6.50
2018-10-17T02:13:58.367Z,6.40
2018-10-17T02:16:26.816Z,6.40
2018-10-17T02:18:55.311Z,6.40
2018-10-17T02:21:23.842Z,6.40
2018-10-17T02:23:52.383Z,6.40
2018-10-17T02:26:20.819Z,6.50
2018-10-17T02:28:49.236Z,6.50
2018-10-17T02:31:17.777Z,6.40
2018-10-17T02:33:46.204Z,6.40
2018-10-17T02:36:14.714Z,6.40
2018-10-17T02:38:43.433Z,6.30
2018-10-17T02:41:11.914Z,6.30
2018-10-17T02:43:40.322Z,6.30
2018-10-17T02:46:08.876Z,6.20
2018-10-17T02:48:37.432Z,6.20
2018-10-17T02:51:05.863Z,6.10
2018-10-17T02:53:34.320Z,6.10
2018-10-17T02:56:02.924Z,6.10
2018-10-17T02:58:31.430Z,6.10
2018-10-17T03:01:00.047Z,6.20
2018-10-17T03:03:28.440Z,6.10
2018-10-17T03:05:56.902Z,5.90
2018-10-17T03:08:25.420Z,5.80
2018-10-17T03:10:54.777Z,5.80
2018-10-17T03:13:23.273Z,5.90
2018-10-17T03:15:51.711Z,5.80
2018-10-17T03:18:20.235Z,5.70
2018-10-17T03:20:48.793Z,5.80
2018-10-17T03:23:17.309Z,5.80
2018-10-17T03:25:45.780Z,5.90
2018-10-17T03:28:14.352Z,6.00
2018-10-17T03:30:42.947Z,5.90
2018-10-17T03:33:11.429Z,5.90
2018-10-17T03:35:39.844Z,5.90
2018-10-17T03:38:08.395Z,5.90
2018-10-17T03:40:36.833Z,5.70
2018-10-17T03:43:05.448Z,5.70
2018-10-17T03:45:34.080Z,5.60
2018-10-17T03:48:02.684Z,5.60
2018-10-17T03:50:31.114Z,5.70
2018-10-17T03:52:59.650Z,5.70
2018-10-17T03:55:28.163Z,5.60
2018-10-17T03:57:56.616Z,5.60
2018-10-17T04:00:25.191Z,5.60
2018-10-17T04:02:53.671Z,5.60
2018-10-17T04:05:22.046Z,5.60
2018-10-17T04:07:50.570Z,5.60
2018-10-17T04:10:19.115Z,5.60
2018-10-17T04:12:47.694Z,5.60
2018-10-17T04:15:16.313Z,5.60
2018-10-17T04:17:44.751Z,5.40
2018-10-17T04:20:13.317Z,5.50
2018-10-17T04:22:45.836Z,5.50
2018-10-17T04:25:14.504Z,5.60
2018-10-17T04:27:42.889Z,5.60
2018-10-17T04:30:11.353Z,5.60
2018-10-17T04:32:39.948Z,5.50
2018-10-17T04:35:08.507Z,5.50
2018-10-17T04:37:36.922Z,5.50
2018-10-17T04:40:05.626Z,5.40
2018-10-17T04:42:34.067Z,5.30
2018-10-17T04:45:02.509Z,5.40
2018-10-17T04:47:31.101Z,5.40
2018-10-17T04:49:59.482Z,5.40
2018-10-17T04:52:27.919Z,5.40
2018-10-17T04:54:56.386Z,5.50
2018-10-17T04:57:25.130Z,5.50
2018-10-17T04:59:53.659Z,5.40
2018-10-17T05:02:22.149Z,5.40
2018-10-17T05:04:50.642Z,5.40
2018-10-17T05:07:19.668Z,5.30
2018-10-17T05:09:48.106Z,5.40
2018-10-17T05:12:16.533Z,5.20
2018-10-17T05:14:45.022Z,5.30
2018-10-17T05:17:13.569Z,5.30
2018-10-17T05:19:41.909Z,5.20
2018-10-17T05:22:10.623Z,5.10
2018-10-17T05:24:39.113Z,5.10
2018-10-17T05:27:07.650Z,5.10
2018-10-17T05:29:36.184Z,5.90
2018-10-17T05:32:04.926Z,5.80
2018-10-17T05:34:33.674Z,5.80
2018-10-17T05:37:02.163Z,5.80
2018-10-17T05:39:37.194Z,5.80
2018-10-17T05:42:06.044Z,5.70
2018-10-17T05:44:34.561Z,5.70
2018-10-17T05:47:02.976Z,5.80
2018-10-17T05:49:32.077Z,5.80
2018-10-17T05:52:00.511Z,5.80
2018-10-17T05:54:29.050Z,5.90
2018-10-17T05:56:57.485Z,5.80
2018-10-17T05:59:25.990Z,6.00
2018-10-17T06:01:55.325Z,6.10
2018-10-17T06:04:23.716Z,6.20
2018-10-17T06:06:52.225Z,6.40
2018-10-17T06:09:20.653Z,6.50
2018-10-17T06:11:49.664Z,6.70
2018-10-17T06:14:18.163Z,6.80
2018-10-17T06:16:47.232Z,7.00
2018-10-17T06:19:15.748Z,7.10
2018-10-17T06:21:44.108Z,7.30
2018-10-17T06:24:12.537Z,7.30
2018-10-17T06:26:40.969Z,7.40
2018-10-17T06:29:09.655Z,7.50
2018-10-17T06:31:38.025Z,7.60
2018-10-17T06:34:06.790Z,7.60
2018-10-17T06:36:35.130Z,7.70
2018-10-17T06:39:04.649Z,8.00
2018-10-17T06:41:33.074Z,8.00
2018-10-17T06:44:01.749Z,8.00
2018-10-17T06:46:30.133Z,8.10
2018-10-17T06:48:58.810Z,8.00
2018-10-17T06:51:27.261Z,8.10
2018-10-17T06:53:55.748Z,8.30
2018-10-17T06:56:24.311Z,8.50
2018-10-17T06:58:52.760Z,8.80
2018-10-17T07:01:21.249Z,8.70
2018-10-17T07:03:49.710Z,8.60
2018-10-17T07:06:18.203Z,8.90
2018-10-17T07:08:47.704Z,9.30
2018-10-17T07:11:16.286Z,9.40
2018-10-17T07:13:44.767Z,9.40
2018-10-17T07:16:13.245Z,9.60
2018-10-17T07:18:41.789Z,9.60
2018-10-17T07:21:10.265Z,9.90
2018-10-17T07:23:38.759Z,10.10
2018-10-17T07:26:07.305Z,10.40
2018-10-17T07:28:35.799Z,11.40
2018-10-17T07:31:04.238Z,11.40
2018-10-17T07:33:32.841Z,11.50
2018-10-17T07:36:01.314Z,12.10
2018-10-17T07:38:29.686Z,12.70
2018-10-17T07:40:58.271Z,13.60
2018-10-17T07:43:26.890Z,14.60
2018-10-17T07:45:55.329Z,15.70
2018-10-17T07:48:23.946Z,16.80
2018-10-17T07:50:52.449Z,17.90
2018-10-17T07:53:21.025Z,18.70
2018-10-17T07:55:49.466Z,19.80
2018-10-17T07:58:17.914Z,20.60
2018-10-17T08:00:46.346Z,22.00
2018-10-17T08:03:14.799Z,21.60
2018-10-17T08:05:43.212Z,21.10
2018-10-17T08:08:11.655Z,20.70
2018-10-17T08:10:40.136Z,21.60
2018-10-17T08:13:08.654Z,21.70
2018-10-17T08:15:37.102Z,22.10
2018-10-17T08:18:05.808Z,23.10
2018-10-17T08:20:34.240Z,23.80
2018-10-17T08:23:02.809Z,24.60
2018-10-17T08:25:31.330Z,25.40
2018-10-17T08:27:59.788Z,25.10
2018-10-17T08:30:28.242Z,25.40
2018-10-17T08:32:56.690Z,25.40
2018-10-17T08:35:25.246Z,26.30
2018-10-17T08:37:54.229Z,26.60
2018-10-17T08:40:22.192Z,26.60
2018-10-17T08:42:50.690Z,26.70
2018-10-17T08:45:19.292Z,26.80
2018-10-17T08:47:47.762Z,27.60
2018-10-17T08:50:16.258Z,27.20
2018-10-17T08:52:44.750Z,27.60
2018-10-17T08:55:13.346Z,28.40
2018-10-17T08:57:42.027Z,29.20
2018-10-17T09:00:10.490Z,29.50
2018-10-17T09:02:38.966Z,29.10
2018-10-17T09:05:07.462Z,28.50
2018-10-17T09:07:36.008Z,28.50
2018-10-17T09:10:04.539Z,29.20
2018-10-17T09:12:33.041Z,30.00
2018-10-17T09:15:01.499Z,29.90
2018-10-17T09:17:30.087Z,30.30
2018-10-17T09:19:58.889Z,30.50
2018-10-17T09:22:27.464Z,30.70
2018-10-17T09:24:55.689Z,30.70
2018-10-17T09:27:24.170Z,30.60
2018-10-17T09:29:52.664Z,30.90
2018-10-17T09:32:21.141Z,30.90
2018-10-17T09:34:49.608Z,31.20
2018-10-17T09:37:18.107Z,31.90
2018-10-17T09:39:46.572Z,32.10
2018-10-17T09:42:15.257Z,31.90
2018-10-17T09:44:43.651Z,31.50
2018-10-17T09:47:12.100Z,31.40
2018-10-17T09:49:40.553Z,31.30
2018-10-17T09:52:09.178Z,31.40
2018-10-17T09:54:37.584Z,31.50
2018-10-17T09:57:06.168Z,31.90
2018-10-17T09:59:34.741Z,31.80
2018-10-17T10:02:03.242Z,32.40
2018-10-17T10:04:31.701Z,32.20
2018-10-17T10:07:00.155Z,32.50
2018-10-17T10:09:28.606Z,32.00
2018-10-17T10:11:57.097Z,31.90
2018-10-17T10:14:25.530Z,31.90
2018-10-17T10:16:54.041Z,32.40
2018-10-17T10:19:22.427Z,31.80
2018-10-17T10:21:50.946Z,31.90
2018-10-17T10:24:19.409Z,32.00
2018-10-17T10:26:47.871Z,32.30
2018-10-17T10:29:16.297Z,32.90
2018-10-17T10:31:44.743Z,32.80
2018-10-17T10:34:13.311Z,32.40
2018-10-17T10:36:41.773Z,32.30
2018-10-17T10:39:11.101Z,32.80
2018-10-17T10:41:40.035Z,32.40
2018-10-17T10:44:08.591Z,32.50
2018-10-17T10:46:36.988Z,32.60
2018-10-17T10:49:05.585Z,32.50
2018-10-17T10:51:34.128Z,32.40
2018-10-17T10:54:02.576Z,32.60
2018-10-17T10:56:31.009Z,32.70
2018-10-17T10:58:59.494Z,32.30
2018-10-17T11:01:27.909Z,32.40
2018-10-17T11:03:56.349Z,32.60
2018-10-17T11:06:24.835Z,32.70
2018-10-17T11:08:53.295Z,33.00
2018-10-17T11:11:21.747Z,32.60
2018-10-17T11:13:50.258Z,32.00
2018-10-17T11:16:18.765Z,31.80
2018-10-17T11:18:47.211Z,31.90
2018-10-17T11:21:15.750Z,32.10
2018-10-17T11:23:44.181Z,32.20
2018-10-17T11:26:12.647Z,31.90
2018-10-17T11:28:41.103Z,31.70
2018-10-17T11:31:09.649Z,31.80
2018-10-17T11:33:38.081Z,31.90
2018-10-17T11:36:06.622Z,32.00
2018-10-17T11:38:35.076Z,31.90
2018-10-17T11:41:03.659Z,32.30
2018-10-17T11:43:32.014Z,32.40
2018-10-17T11:46:00.600Z,32.30
2018-10-17T11:48:29.074Z,32.10
2018-10-17T11:50:57.585Z,31.60
2018-10-17T11:53:26.064Z,31.60
2018-10-17T11:55:54.591Z,31.50
2018-10-17T11:58:23.102Z,31.40
2018-10-17T12:00:51.534Z,31.70
2018-10-17T12:03:20.030Z,31.90
2018-10-17T12:05:48.629Z,31.30
2018-10-17T12:08:16.980Z,31.60
2018-10-17T12:10:49.870Z,31.30
2018-10-17T12:13:18.328Z,30.90
2018-10-17T12:15:46.802Z,30.80
2018-10-17T12:18:15.394Z,31.40
2018-10-17T12:20:43.783Z,31.30
2018-10-17T12:23:12.214Z,30.60
2018-10-17T12:25:40.718Z,30.70
2018-10-17T12:28:09.353Z,30.40
2018-10-17T12:30:37.628Z,29.80
2018-10-17T12:33:06.231Z,29.10
2018-10-17T12:35:34.664Z,28.60
2018-10-17T12:38:03.151Z,27.80
2018-10-17T12:40:31.838Z,27.50
2018-10-17T12:43:00.141Z,26.90
2018-10-17T12:45:28.597Z,26.30
2018-10-17T12:47:57.048Z,25.50
2018-10-17T12:50:25.575Z,24.90
2018-10-17T12:52:54.095Z,24.40
2018-10-17T12:55:22.530Z,24.00
2018-10-17T12:57:50.995Z,23.90
2018-10-17T13:00:19.442Z,23.70
2018-10-17T13:02:47.874Z,23.50
2018-10-17T13:05:16.393Z,23.60
2018-10-17T13:07:44.807Z,23.50
2018-10-17T13:10:13.269Z,23.20
2018-10-17T13:12:42.017Z,22.90
2018-10-17T13:15:12.440Z,22.90
2018-10-17T13:17:41.226Z,22.60
2018-10-17T13:20:09.706Z,22.40
2018-10-17T13:22:38.148Z,22.20
2018-10-17T13:25:06.825Z,22.00
2018-10-17T13:27:35.284Z,22.00
2018-10-17T13:30:04.466Z,21.60
2018-10-17T13:32:32.910Z,21.40
2018-10-17T13:35:01.408Z,21.20
2018-10-17T13:37:29.825Z,21.10
2018-10-17T13:39:58.332Z,21.10
2018-10-17T13:42:26.817Z,21.00
2018-10-17T13:44:55.296Z,20.80
2018-10-17T13:47:23.786Z,20.80
2018-10-17T13:49:52.215Z,20.80
2018-10-17T13:52:20.674Z,20.90
2018-10-17T13:54:49.173Z,20.90
2018-10-17T13:57:17.598Z,21.10
2018-10-17T13:59:46.085Z,21.10
2018-10-17T14:02:14.555Z,21.20
2018-10-17T14:04:42.985Z,21.10
2018-10-17T14:07:11.497Z,21.20
2018-10-17T14:09:39.907Z,21.00
2018-10-17T14:12:08.452Z,20.80
2018-10-17T14:14:36.902Z,20.80
2018-10-17T14:17:05.474Z,20.70
2018-10-17T14:19:33.921Z,20.40
2018-10-17T14:22:02.415Z,20.30
2018-10-17T14:24:30.955Z,20.20
2018-10-17T14:26:59.459Z,20.10
2018-10-17T14:29:27.947Z,20.00
2018-10-17T14:31:56.505Z,19.90
2018-10-17T14:34:25.060Z,19.70
2018-10-17T14:36:53.532Z,19.60
2018-10-17T14:39:22.168Z,19.60
2018-10-17T14:41:50.627Z,19.50
2018-10-17T14:44:19.111Z,19.40
2018-10-17T14:46:47.569Z,19.30
2018-10-17T14:49:16.043Z,19.30
2018-10-17T14:51:44.501Z,19.20
2018-10-17T14:54:13.016Z,19.20
2018-10-17T14:56:41.524Z,19.10
2018-10-17T14:59:10.007Z,19.10
2018-10-17T15:01:38.456Z,19.00
2018-10-17T15:04:06.940Z,18.90
2018-10-17T15:06:35.380Z,18.90
2018-10-17T15:09:04.926Z,18.80
2018-10-17T15:11:33.413Z,18.70
2018-10-17T15:14:01.842Z,18.70
2018-10-17T15:16:30.336Z,18.70
2018-10-17T15:18:58.821Z,18.50
2018-10-17T15:21:27.293Z,18.50
2018-10-17T15:23:55.793Z,18.40
2018-10-17T15:26:24.293Z,18.30
2018-10-17T15:28:53.163Z,18.20
2018-10-17T15:31:21.806Z,18.00
2018-10-17T15:33:50.212Z,18.00
2018-10-17T15:36:18.801Z,17.90
2018-10-17T15:38:47.218Z,17.80
2018-10-17T15:41:15.710Z,17.80
2018-10-17T15:43:44.210Z,17.70
2018-10-17T15:46:12.650Z,17.60
2018-10-17T15:48:41.180Z,17.50
2018-10-17T15:51:09.750Z,17.50
2018-10-17T15:53:38.231Z,17.40
2018-10-17T15:56:06.712Z,17.20
2018-10-17T15:58:35.185Z,17.10
2018-10-17T16:01:03.772Z,16.90
2018-10-17T16:03:32.278Z,16.80
2018-10-17T16:06:00.920Z,16.70
2018-10-17T16:08:29.377Z,16.60
2018-10-17T16:10:57.892Z,16.50
2018-10-17T16:13:26.624Z,16.30
2018-10-17T16:15:55.135Z,16.00
2018-10-17T16:18:23.639Z,15.80
2018-10-17T16:20:52.083Z,15.50
2018-10-17T16:23:20.647Z,15.30
2018-10-17T16:25:49.282Z,15.20
2018-10-17T16:28:18.255Z,15.00
2018-10-17T16:30:47.018Z,14.90
2018-10-17T16:33:15.407Z,14.60
2018-10-17T16:35:44.355Z,14.60
2018-10-17T16:38:12.883Z,14.60
2018-10-17T16:40:41.419Z,14.40
2018-10-17T16:43:09.933Z,14.20
2018-10-17T16:45:39.165Z,14.20
2018-10-17T16:48:07.700Z,14.00
2018-10-17T16:50:36.353Z,13.90
2018-10-17T16:53:04.978Z,13.70
2018-10-17T16:55:33.487Z,13.50
2018-10-17T16:58:02.002Z,13.50
2018-10-17T17:00:31.174Z,13.40
2018-10-17T17:02:59.696Z,13.30
2018-10-17T17:05:28.280Z,13.30
2018-10-17T17:07:57.045Z,13.20
2018-10-17T17:10:26.226Z,13.20
2018-10-17T17:12:54.907Z,13.10
2018-10-17T17:15:23.841Z,13.00
2018-10-17T17:17:52.486Z,12.80
2018-10-17T17:20:21.071Z,12.50
2018-10-17T17:22:50.025Z,12.30
2018-10-17T17:25:18.580Z,12.40
2018-10-17T17:27:47.232Z,12.40
2018-10-17T17:30:18.094Z,12.40
2018-10-17T17:32:48.453Z,12.30
2018-10-17T17:35:17.159Z,12.30
2018-10-17T17:37:46.116Z,12.30
2018-10-17T17:40:15.327Z,12.30
2018-10-17T17:42:44.053Z,12.30
2018-10-17T17:45:13.546Z,12.20
2018-10-17T17:47:47.910Z,12.10
2018-10-17T17:50:16.753Z,12.00
2018-10-17T17:52:45.567Z,12.00
2018-10-17T17:55:14.501Z,11.80
2018-10-17T17:57:43.373Z,11.70
2018-10-17T18:00:12.334Z,11.60
2018-10-17T18:02:41.208Z,11.50
2018-10-17T18:05:10.271Z,11.50
2018-10-17T18:07:39.183Z,11.50
2018-10-17T18:10:08.793Z,11.50
2018-10-17T18:12:38.009Z,11.50
2018-10-17T18:15:08.580Z,11.40
2018-10-17T18:17:38.165Z,11.40
2018-10-17T18:20:08.854Z,11.30
2018-10-17T18:22:39.039Z,11.30
2018-10-17T18:25:09.843Z,11.20
2018-10-17T18:27:40.547Z,11.20
2018-10-17T18:30:09.654Z,11.10
2018-10-17T18:32:38.698Z,10.90
2018-10-17T18:35:07.917Z,11.00
2018-10-17T18:37:38.343Z,11.00
2018-10-17T18:40:07.810Z,10.90
2018-10-17T18:42:37.259Z,10.90
2018-10-17T18:45:06.741Z,10.90
2018-10-17T18:47:35.763Z,10.80
2018-10-17T18:50:06.018Z,10.80
2018-10-17T18:52:35.898Z,10.60
2018-10-17T18:55:06.251Z,10.60
2018-10-17T18:57:35.953Z,10.50
2018-10-17T19:00:06.217Z,10.50
2018-10-17T19:02:36.586Z,10.50
2018-10-17T19:05:06.508Z,10.50
2018-10-17T19:07:35.531Z,10.40
2018-10-17T19:10:04.688Z,10.30
2018-10-17T19:12:33.709Z,10.10
2018-10-17T19:15:02.916Z,9.90
2018-10-17T19:17:31.926Z,9.80
2018-10-17T19:20:02.114Z,9.90
2018-10-17T19:22:31.295Z,9.90
2018-10-17T19:25:00.405Z,9.90
2018-10-17T19:27:29.484Z,10.00
2018-10-17T19:29:59.159Z,10.00
2018-10-17T19:32:28.209Z,9.90
2018-10-17T19:34:57.391Z,10.00
2018-10-17T19:37:27.204Z,9.90
2018-10-17T19:39:57.682Z,9.90
2018-10-17T19:42:27.379Z,9.90
2018-10-17T19:44:58.106Z,9.90
2018-10-17T19:47:28.038Z,9.80
2018-10-17T19:50:01.660Z,9.80
2018-10-17T19:52:31.243Z,9.80
2018-10-17T19:57:27.939Z,9.80
2018-10-17T19:59:57.783Z,9.50
2018-10-17T20:02:26.807Z,9.40
2018-10-17T20:04:55.830Z,9.30
2018-10-17T20:07:25.036Z,9.40
2018-10-17T20:09:54.002Z,9.30
2018-10-17T20:12:23.053Z,9.30
2018-10-17T20:14:52.092Z,9.30
2018-10-17T20:17:21.079Z,9.30
2018-10-17T20:19:50.116Z,9.20
2018-10-17T20:22:19.150Z,9.20
2018-10-17T20:24:48.090Z,9.20
2018-10-17T20:27:17.151Z,9.20
2018-10-17T20:29:46.971Z,9.20
2018-10-17T20:32:15.758Z,9.10
2018-10-17T20:34:44.438Z,9.10
2018-10-17T20:37:13.214Z,9.10
2018-10-17T20:39:41.937Z,9.10
2018-10-17T20:42:10.921Z,9.10
2018-10-17T20:44:39.638Z,9.00
2018-10-17T20:47:08.426Z,8.90
2018-10-17T20:49:36.975Z,8.90
2018-10-17T20:52:05.607Z,8.90
2018-10-17T20:54:34.139Z,8.80
2018-10-17T20:57:02.628Z,8.80
2018-10-17T20:59:31.168Z,8.70
2018-10-17T21:01:59.938Z,8.70
2018-10-17T21:04:28.322Z,8.70
2018-10-17T21:06:56.806Z,8.60
2018-10-17T21:09:25.267Z,8.50
2018-10-17T21:11:53.696Z,8.40
2018-10-17T21:14:22.142Z,8.50
2018-10-17T21:16:50.561Z,8.40
2018-10-17T21:19:19.022Z,8.30
2018-10-17T21:21:47.479Z,8.30
2018-10-17T21:24:16.021Z,8.30
2018-10-17T21:26:44.474Z,8.30
2018-10-17T21:29:12.915Z,8.20
2018-10-17T21:31:41.409Z,8.20
2018-10-17T21:34:09.875Z,8.20
2018-10-17T21:36:38.341Z,8.20
2018-10-17T21:39:10.941Z,8.20
2018-10-17T21:41:39.387Z,8.10
2018-10-17T21:44:09.129Z,8.10
2018-10-17T21:46:37.723Z,8.00
2018-10-17T21:49:06.668Z,8.00
2018-10-17T21:51:35.142Z,8.00
2018-10-17T21:54:03.833Z,8.00
2018-10-17T21:56:32.284Z,7.90
2018-10-17T21:59:00.729Z,7.80
2018-10-17T22:01:29.233Z,7.90
2018-10-17T22:03:57.687Z,7.90
2018-10-17T22:06:32.825Z,7.90
2018-10-17T22:09:01.334Z,7.90
2018-10-17T22:11:29.867Z,7.80
2018-10-17T22:13:58.340Z,7.80
2018-10-17T22:16:31.015Z,7.70
2018-10-17T22:18:59.588Z,7.70
2018-10-17T22:21:27.988Z,7.70
2018-10-17T22:23:56.462Z,7.70
2018-10-17T22:26:24.976Z,7.60
2018-10-17T22:28:53.474Z,7.60
2018-10-17T22:31:21.916Z,7.60
2018-10-17T22:33:51.651Z,7.60
2018-10-17T22:36:20.088Z,7.60
2018-10-17T22:38:48.512Z,7.40
2018-10-17T22:41:17.088Z,7.50
2018-10-17T22:43:45.476Z,7.50
2018-10-17T22:46:13.941Z,7.50
2018-10-17T22:48:42.389Z,7.40
2018-10-17T22:51:10.883Z,7.40
2018-10-17T22:53:39.442Z,7.40
2018-10-17T22:56:07.941Z,7.40
2018-10-17T22:58:36.378Z,7.30
2018-10-17T23:01:05.368Z,7.20
2018-10-17T23:03:33.856Z,7.20
2018-10-17T23:06:02.280Z,7.20
2018-10-17T23:08:30.730Z,7.20
2018-10-17T23:10:59.140Z,7.10
2018-10-17T23:13:27.629Z,7.10
2018-10-17T23:15:56.049Z,7.10
2018-10-17T23:18:24.515Z,7.00
2018-10-17T23:20:52.952Z,6.90
2018-10-17T23:23:21.400Z,6.90
2018-10-17T23:25:49.832Z,6.90
2018-10-17T23:28:18.537Z,6.90
2018-10-17T23:30:47.000Z,6.90
2018-10-17T23:33:15.460Z,6.90
2018-10-17T23:35:43.887Z,6.90
2018-10-17T23:38:12.745Z,6.90
2018-10-17T23:40:41.179Z,6.70
2018-10-17T23:43:10.336Z,6.60
2018-10-17T23:45:39.022Z,6.50
2018-10-17T23:48:08.213Z,6.50
2018-10-17T23:50:37.005Z,6.60
2018-10-17T23:53:05.788Z,6.70
2018-10-17T23:55:34.173Z,6.70
2018-10-17T23:58:02.945Z,6.60
